createdAt,value
2024-04-22T00:00:35.757Z,56.30
2024-04-22T00:01:35.960Z,55.06
2024-04-22T00:02:35.926Z,54.64
2024-04-22T00:03:35.992Z,54.38
2024-04-22T00:04:35.997Z,55.57
2024-04-22T00:05:35.923Z,55.24
2024-04-22T00:06:36.101Z,55.44
2024-04-22T00:07:36.062Z,54.27
2024-04-22T00:08:36.123Z,55.82
2024-04-22T00:09:36.136Z,56.28
2024-04-22T00:10:36.251Z,57.98
2024-04-22T00:11:36.322Z,55.48
2024-04-22T00:12:36.250Z,57.01
2024-04-22T00:13:36.411Z,57.01
2024-04-22T00:14:36.292Z,54.48
2024-04-22T00:15:36.408Z,55.55
2024-04-22T00:16:36.519Z,53.72
2024-04-22T00:17:36.551Z,55.87
2024-04-22T00:18:36.504Z,55.10
2024-04-22T00:19:36.657Z,55.24
2024-04-22T00:20:36.576Z,56.37
2024-04-22T00:21:37.136Z,53.12
2024-04-22T00:22:36.765Z,56.81
2024-04-22T00:23:36.676Z,57.38
2024-04-22T00:24:36.678Z,58.16
2024-04-22T00:25:36.878Z,56.92
2024-04-22T00:26:37.085Z,56.81
2024-04-22T00:27:36.810Z,55.60
2024-04-22T00:28:37.136Z,55.97
2024-04-22T00:29:36.895Z,57.15
2024-04-22T00:30:36.882Z,54.18
2024-04-22T00:31:37.168Z,56.78
2024-04-22T00:32:37.009Z,56.05
2024-04-22T00:33:37.112Z,55.70
2024-04-22T00:34:37.082Z,55.94
2024-04-22T00:35:37.069Z,54.09
2024-04-22T00:36:37.074Z,55.81
2024-04-22T00:37:37.196Z,54.87
2024-04-22T00:38:37.112Z,55.94
2024-04-22T00:39:37.145Z,53.50
2024-04-22T00:40:37.321Z,57.84
2024-04-22T00:41:37.191Z,56.90
2024-04-22T00:42:37.205Z,58.10
2024-04-22T00:43:37.388Z,56.32
2024-04-22T00:44:37.281Z,54.57
2024-04-22T00:45:37.298Z,57.59
2024-04-22T00:46:37.367Z,54.78
2024-04-22T00:47:37.478Z,55.30
2024-04-22T00:48:37.444Z,57.35
2024-04-22T00:49:37.479Z,56.06
2024-04-22T00:50:37.447Z,56.60
2024-04-22T00:51:37.471Z,54.87
2024-04-22T00:52:37.725Z,55.42
2024-04-22T00:53:37.544Z,54.19
2024-04-22T00:54:37.560Z,55.59
2024-04-22T00:55:37.665Z,53.61
2024-04-22T00:56:37.665Z,54.70
2024-04-22T00:57:37.657Z,54.98
2024-04-22T00:58:37.810Z,54.99
2024-04-22T00:59:37.754Z,55.45
2024-04-22T01:00:37.771Z,55.29
2024-04-22T01:01:37.845Z,55.78
2024-04-22T01:02:37.888Z,53.47
2024-04-22T01:03:37.923Z,56.93
2024-04-22T01:04:38.054Z,54.33
2024-04-22T01:05:37.996Z,54.60
2024-04-22T01:06:38.049Z,55.20
2024-04-22T01:07:38.151Z,56.84
2024-04-22T01:08:38.084Z,58.23
2024-04-22T01:09:38.126Z,56.63
2024-04-22T01:10:38.323Z,55.73
2024-04-22T01:11:38.260Z,55.61
2024-04-22T01:12:38.249Z,56.69
2024-04-22T01:13:38.374Z,54.19
2024-04-22T01:14:38.322Z,54.86
2024-04-22T01:15:38.317Z,56.64
2024-04-22T01:16:38.431Z,56.71
2024-04-22T01:17:38.538Z,56.37
2024-04-22T01:18:38.531Z,56.74
2024-04-22T01:19:38.536Z,54.88
2024-04-22T01:20:38.516Z,53.85
2024-04-22T01:21:38.602Z,56.02
2024-04-22T01:22:38.764Z,55.28
2024-04-22T01:23:38.668Z,55.12
2024-04-22T01:24:38.704Z,54.23
2024-04-22T01:25:38.829Z,54.85
2024-04-22T01:26:38.758Z,56.43
2024-04-22T01:27:38.744Z,55.63
2024-04-22T01:28:38.869Z,55.02
2024-04-22T01:29:38.819Z,54.57
2024-04-22T01:30:38.840Z,54.59
2024-04-22T01:31:39.167Z,54.26
2024-04-22T01:32:38.982Z,55.77
2024-04-22T01:33:38.970Z,55.05
2024-04-22T01:34:39.029Z,55.47
2024-04-22T01:35:39.021Z,55.06
2024-04-22T01:36:39.123Z,56.77
2024-04-22T01:37:39.145Z,52.11
2024-04-22T01:38:39.128Z,53.88
2024-04-22T01:39:39.220Z,54.88
2024-04-22T01:40:39.291Z,57.79
2024-04-22T01:41:39.594Z,57.97
2024-04-22T01:42:39.297Z,53.98
2024-04-22T01:43:39.458Z,57.46
2024-04-22T01:44:39.353Z,57.27
2024-04-22T01:45:39.394Z,57.54
2024-04-22T01:46:39.721Z,56.62
2024-04-22T01:47:39.504Z,57.57
2024-04-22T01:48:39.464Z,55.42
2024-04-22T01:49:39.615Z,57.32
2024-04-22T01:50:39.534Z,57.78
2024-04-22T01:51:39.636Z,58.74
2024-04-22T01:52:39.777Z,56.09
2024-04-22T01:53:39.730Z,57.47
2024-04-22T01:54:39.779Z,57.16
2024-04-22T01:55:39.922Z,53.42
2024-04-22T01:56:39.862Z,57.07
2024-04-22T01:57:39.984Z,57.42
2024-04-22T01:58:40.056Z,56.46
2024-04-22T01:59:40.006Z,54.58
2024-04-22T02:00:40.027Z,54.34
2024-04-22T02:01:40.098Z,57.07
2024-04-22T02:02:40.109Z,52.89
2024-04-22T02:03:40.153Z,57.45
2024-04-22T02:04:40.189Z,54.53
2024-04-22T02:05:40.217Z,55.22
2024-04-22T02:06:40.244Z,57.61
2024-04-22T02:07:40.300Z,55.82
2024-04-22T02:08:40.329Z,53.63
2024-04-22T02:09:40.369Z,53.95
2024-04-22T02:10:40.492Z,55.30
2024-04-22T02:11:40.638Z,57.34
2024-04-22T02:12:40.458Z,54.17
2024-04-22T02:13:40.567Z,52.89
2024-04-22T02:14:40.532Z,56.60
2024-04-22T02:15:40.562Z,58.15
2024-04-22T02:16:40.647Z,56.62
2024-04-22T02:17:40.786Z,54.96
2024-04-22T02:18:40.658Z,55.98
2024-04-22T02:19:40.804Z,58.18
2024-04-22T02:20:40.805Z,56.35
2024-04-22T02:21:41.122Z,58.31
2024-04-22T02:22:40.964Z,53.89
2024-04-22T02:23:40.900Z,56.13
2024-04-22T02:24:40.854Z,56.24
2024-04-22T02:25:41.014Z,56.80
2024-04-22T02:26:41.158Z,54.35
2024-04-22T02:27:40.995Z,56.11
2024-04-22T02:28:41.145Z,53.76
2024-04-22T02:29:41.038Z,56.47
2024-04-22T02:30:41.083Z,57.07
2024-04-22T02:31:41.257Z,56.81
2024-04-22T02:32:42.165Z,55.90
2024-04-22T02:33:41.236Z,56.72
2024-04-22T02:34:41.236Z,54.32
2024-04-22T02:35:41.254Z,56.80
2024-04-22T02:36:41.303Z,56.43
2024-04-22T02:37:41.394Z,55.70
2024-04-22T02:38:41.384Z,56.33
2024-04-22T02:39:41.414Z,57.54
2024-04-22T02:40:43.536Z,58.20
2024-04-22T02:41:41.598Z,57.03
2024-04-22T02:42:41.660Z,55.85
2024-04-22T02:43:41.618Z,55.06
2024-04-22T02:44:41.642Z,57.07
2024-04-22T02:45:41.681Z,55.70
2024-04-22T02:46:41.783Z,56.31
2024-04-22T02:47:41.846Z,55.39
2024-04-22T02:48:41.788Z,55.56
2024-04-22T02:49:41.856Z,56.18
2024-04-22T02:50:41.868Z,55.20
2024-04-22T02:51:41.950Z,55.61
2024-04-22T02:52:41.979Z,53.12
2024-04-22T02:53:42.009Z,57.16
2024-04-22T02:54:42.033Z,55.18
2024-04-22T02:55:42.124Z,51.95
2024-04-22T02:56:42.144Z,54.46
2024-04-22T02:57:42.220Z,53.50
2024-04-22T02:58:44.160Z,56.70
2024-04-22T02:59:42.266Z,54.47
2024-04-22T03:00:42.316Z,57.18
2024-04-22T03:01:42.664Z,55.64
2024-04-22T03:02:42.378Z,56.58
2024-04-22T03:03:42.442Z,55.60
2024-04-22T03:04:42.479Z,54.42
2024-04-22T03:05:42.479Z,57.81
2024-04-22T03:06:42.553Z,55.44
2024-04-22T03:07:42.578Z,54.04
2024-04-22T03:08:42.607Z,57.61
2024-04-22T03:09:42.668Z,55.74
2024-04-22T03:10:42.727Z,55.99
2024-04-22T03:11:42.821Z,54.34
2024-04-22T03:12:42.801Z,56.24
2024-04-22T03:13:42.857Z,54.00
2024-04-22T03:14:42.842Z,57.23
2024-04-22T03:15:42.872Z,55.75
2024-04-22T03:16:43.005Z,57.47
2024-04-22T03:17:42.995Z,52.87
2024-04-22T03:18:43.005Z,53.84
2024-04-22T03:19:43.097Z,55.20
2024-04-22T03:20:43.083Z,54.87
2024-04-22T03:21:43.119Z,55.91
2024-04-22T03:22:43.190Z,55.73
2024-04-22T03:23:43.181Z,55.45
2024-04-22T03:24:43.231Z,55.45
2024-04-22T03:25:43.351Z,53.95
2024-04-22T03:26:43.641Z,55.90
2024-04-22T03:27:43.354Z,52.47
2024-04-22T03:28:43.440Z,55.92
2024-04-22T03:29:43.629Z,55.84
2024-04-22T03:30:43.466Z,55.86
2024-04-22T03:31:43.760Z,55.09
2024-04-22T03:32:43.650Z,52.98
2024-04-22T03:33:43.590Z,54.50
2024-04-22T03:34:43.675Z,55.48
2024-04-22T03:35:43.706Z,54.44
2024-04-22T03:36:43.722Z,52.75
2024-04-22T03:37:43.815Z,57.58
2024-04-22T03:38:43.794Z,56.75
2024-04-22T03:39:43.829Z,55.89
2024-04-22T03:40:43.943Z,55.83
2024-04-22T03:41:43.948Z,54.93
2024-04-22T03:42:43.993Z,57.77
2024-04-22T03:43:44.109Z,55.93
2024-04-22T03:44:44.077Z,56.58
2024-04-22T03:45:44.100Z,55.05
2024-04-22T03:46:44.679Z,54.58
2024-04-22T03:47:44.298Z,52.60
2024-04-22T03:48:44.439Z,54.20
2024-04-22T03:49:44.385Z,56.68
2024-04-22T03:50:44.362Z,55.14
2024-04-22T03:51:44.657Z,55.92
2024-04-22T03:52:44.504Z,55.19
2024-04-22T03:53:44.474Z,56.41
2024-04-22T03:54:44.523Z,56.56
2024-04-22T03:55:44.608Z,55.26
2024-04-22T03:56:44.606Z,54.56
2024-04-22T03:57:44.836Z,55.88
2024-04-22T03:58:44.725Z,56.36
2024-04-22T03:59:44.714Z,55.19
2024-04-22T04:00:44.808Z,54.71
2024-04-22T04:01:44.809Z,54.08
2024-04-22T04:02:44.832Z,55.45
2024-04-22T04:03:45.008Z,56.46
2024-04-22T04:04:45.052Z,55.23
2024-04-22T04:05:45.152Z,54.58
2024-04-22T04:06:45.183Z,56.64
2024-04-22T04:07:45.126Z,53.85
2024-04-22T04:08:45.141Z,55.59
2024-04-22T04:09:45.189Z,53.96
2024-04-22T04:10:45.351Z,56.42
2024-04-22T04:11:45.376Z,53.51
2024-04-22T04:12:45.353Z,57.80
2024-04-22T04:13:45.400Z,56.29
2024-04-22T04:14:45.423Z,56.08
2024-04-22T04:15:45.479Z,55.62
2024-04-22T04:16:45.856Z,54.33
2024-04-22T04:17:45.636Z,56.07
2024-04-22T04:18:45.659Z,56.81
2024-04-22T04:19:45.718Z,57.40
2024-04-22T04:20:45.709Z,56.54
2024-04-22T04:21:45.895Z,54.34
2024-04-22T04:22:45.807Z,57.11
2024-04-22T04:23:45.877Z,57.56
2024-04-22T04:24:45.955Z,54.76
2024-04-22T04:25:46.108Z,50.66
2024-04-22T04:26:46.181Z,56.91
2024-04-22T04:27:46.068Z,54.55
2024-04-22T04:28:48.914Z,56.25
2024-04-22T04:29:56.613Z,50.00
2024-04-22T04:30:56.602Z,50.00
2024-04-22T04:32:04.113Z,50.00
2024-04-22T04:33:04.120Z,50.00
2024-04-22T04:34:04.138Z,50.00
2024-04-22T04:35:07.643Z,50.00
2024-04-22T04:36:04.164Z,50.00
2024-04-22T04:37:04.449Z,50.00
2024-04-22T04:38:04.113Z,50.00
2024-04-22T04:39:04.089Z,50.00
2024-04-22T04:40:04.095Z,50.00
2024-04-22T04:41:04.090Z,50.07
2024-04-22T04:42:04.451Z,50.00
2024-04-22T04:43:04.057Z,50.00
2024-04-22T04:44:04.017Z,51.41
2024-04-22T04:45:03.999Z,53.05
2024-04-22T04:46:03.989Z,53.74
2024-04-22T04:47:04.014Z,54.13
2024-04-22T04:48:04.079Z,53.51
2024-04-22T04:49:03.938Z,55.70
2024-04-22T04:50:03.961Z,54.20
2024-04-22T04:51:03.945Z,51.05
2024-04-22T04:52:03.964Z,54.73
2024-04-22T04:53:03.908Z,53.07
2024-04-22T04:54:03.879Z,53.27
2024-04-22T04:55:03.880Z,52.66
2024-04-22T04:56:03.839Z,53.79
2024-04-22T04:57:03.939Z,52.49
2024-04-22T04:58:03.784Z,52.95
2024-04-22T04:59:03.762Z,53.71
2024-04-22T05:00:03.798Z,55.31
2024-04-22T05:01:03.924Z,54.33
2024-04-22T05:02:03.997Z,56.15
2024-04-22T05:03:03.953Z,55.71
2024-04-22T05:04:03.948Z,54.51
2024-04-22T05:05:03.984Z,55.10
2024-04-22T05:06:04.022Z,54.90
2024-04-22T05:07:04.482Z,55.53
2024-04-22T05:08:04.065Z,53.16
2024-04-22T05:09:04.107Z,56.41
2024-04-22T05:10:04.136Z,52.13
2024-04-22T05:11:04.195Z,53.60
2024-04-22T05:12:04.453Z,54.69
2024-04-22T05:13:04.218Z,54.09
2024-04-22T05:14:04.283Z,53.78
2024-04-22T05:15:04.311Z,53.33
2024-04-22T05:16:04.399Z,54.23
2024-04-22T05:17:04.380Z,57.23
2024-04-22T05:18:04.424Z,55.84
2024-04-22T05:19:04.445Z,56.08
2024-04-22T05:20:04.510Z,54.06
2024-04-22T05:21:04.522Z,54.97
2024-04-22T05:22:04.977Z,56.09
2024-04-22T05:23:04.669Z,56.07
2024-04-22T05:24:04.629Z,57.67
2024-04-22T05:25:04.699Z,57.28
2024-04-22T05:26:04.750Z,57.79
2024-04-22T05:27:04.984Z,54.14
2024-04-22T05:28:04.762Z,55.79
2024-04-22T05:29:04.825Z,54.45
2024-04-22T05:30:04.834Z,56.19
2024-04-22T05:31:04.882Z,54.78
2024-04-22T05:32:04.954Z,55.51
2024-04-22T05:33:05.039Z,55.01
2024-04-22T05:34:05.036Z,55.66
2024-04-22T05:35:05.065Z,56.17
2024-04-22T05:36:05.125Z,56.60
2024-04-22T05:37:05.548Z,57.98
2024-04-22T05:38:05.242Z,58.37
2024-04-22T05:39:05.198Z,58.52
2024-04-22T05:40:05.291Z,56.31
2024-04-22T05:41:05.307Z,55.17
2024-04-22T05:42:05.478Z,55.45
2024-04-22T05:43:05.385Z,54.38
2024-04-22T05:44:05.446Z,57.31
2024-04-22T05:45:05.457Z,56.96
2024-04-22T05:46:06.961Z,55.88
2024-04-22T05:47:05.967Z,55.75
2024-04-22T05:48:05.644Z,55.56
2024-04-22T05:49:05.627Z,52.58
2024-04-22T05:50:05.649Z,54.59
2024-04-22T05:51:05.669Z,54.17
2024-04-22T05:52:06.018Z,54.68
2024-04-22T05:53:05.742Z,54.21
2024-04-22T05:54:05.784Z,55.80
2024-04-22T05:55:05.819Z,54.25
2024-04-22T05:56:05.892Z,55.11
2024-04-22T05:57:05.991Z,57.36
2024-04-22T05:58:05.903Z,55.36
2024-04-22T05:59:06.171Z,56.77
2024-04-22T06:00:05.965Z,54.83
2024-04-22T06:01:06.134Z,51.60
2024-04-22T06:02:06.507Z,55.07
2024-04-22T06:03:06.153Z,53.52
2024-04-22T06:04:06.157Z,54.29
2024-04-22T06:05:06.209Z,56.11
2024-04-22T06:06:06.199Z,54.11
2024-04-22T06:07:06.218Z,55.24
2024-04-22T06:08:06.299Z,54.34
2024-04-22T06:09:06.310Z,53.84
2024-04-22T06:10:06.327Z,53.15
2024-04-22T06:11:06.457Z,55.34
2024-04-22T06:12:14.919Z,54.83
2024-04-22T06:13:07.410Z,54.94
2024-04-22T06:14:06.363Z,55.12
2024-04-22T06:15:07.368Z,55.02
2024-04-22T06:16:06.355Z,54.99
2024-04-22T06:17:06.341Z,54.06
2024-04-22T06:18:06.374Z,56.64
2024-04-22T06:19:06.284Z,56.23
2024-04-22T06:20:06.302Z,57.77
2024-04-22T06:21:06.267Z,58.41
2024-04-22T06:22:06.253Z,57.12
2024-04-22T06:23:06.252Z,58.27
2024-04-22T06:24:06.233Z,57.84
2024-04-22T06:25:06.243Z,59.34
2024-04-22T06:26:06.258Z,57.57
2024-04-22T06:27:06.495Z,58.21
2024-04-22T06:28:06.356Z,60.11
2024-04-22T06:29:06.385Z,57.69
2024-04-22T06:30:06.545Z,56.71
2024-04-22T06:31:08.422Z,58.13
2024-04-22T06:32:06.614Z,59.12
2024-04-22T06:33:06.478Z,61.20
2024-04-22T06:34:06.438Z,59.48
2024-04-22T06:35:06.451Z,61.45
2024-04-22T06:36:06.410Z,58.64
2024-04-22T06:37:06.484Z,60.02
2024-04-22T06:38:09.122Z,60.13
2024-04-22T06:39:06.374Z,59.01
2024-04-22T06:40:06.332Z,60.35
2024-04-22T06:41:06.337Z,60.41
2024-04-22T06:42:06.314Z,60.83
2024-04-22T06:43:06.313Z,61.02
2024-04-22T06:44:06.364Z,59.76
2024-04-22T06:45:06.320Z,60.66
2024-04-22T06:46:06.321Z,63.51
2024-04-22T06:47:06.354Z,61.03
2024-04-22T06:48:06.294Z,61.04
2024-04-22T06:49:06.271Z,62.50
2024-04-22T06:50:06.247Z,62.03
2024-04-22T06:51:06.246Z,61.45
2024-04-22T06:52:06.210Z,64.03
2024-04-22T06:53:06.174Z,61.48
2024-04-22T06:54:06.229Z,61.42
2024-04-22T06:55:06.156Z,63.32
2024-04-22T06:56:06.155Z,63.29
2024-04-22T06:57:06.272Z,61.82
2024-04-22T06:58:06.214Z,63.85
2024-04-22T06:59:06.165Z,62.60
2024-04-22T07:00:06.176Z,63.97
2024-04-22T07:01:06.237Z,63.71
2024-04-22T07:02:10.052Z,63.52
2024-04-22T07:03:07.257Z,63.59
2024-04-22T07:04:06.357Z,63.93
2024-04-22T07:05:06.254Z,63.88
2024-04-22T07:06:06.171Z,63.82
2024-04-22T07:07:06.077Z,63.67
2024-04-22T07:08:06.082Z,63.90
2024-04-22T07:09:06.076Z,65.24
2024-04-22T07:10:06.057Z,61.37
2024-04-22T07:11:06.048Z,63.35
2024-04-22T07:12:06.522Z,66.59
2024-04-22T07:13:06.072Z,63.06
2024-04-22T07:14:06.188Z,64.38
2024-04-22T07:15:06.212Z,66.00
2024-04-22T07:16:06.341Z,65.34
2024-04-22T07:17:06.255Z,65.03
2024-04-22T07:18:06.363Z,66.04
2024-04-22T07:19:06.340Z,64.92
2024-04-22T07:20:06.404Z,66.21
2024-04-22T07:21:06.433Z,69.23
2024-04-22T07:22:06.471Z,67.93
2024-04-22T07:23:06.489Z,70.83
2024-04-22T07:24:06.520Z,70.40
2024-04-22T07:25:06.563Z,70.59
2024-04-22T07:26:06.608Z,71.55
2024-04-22T07:27:11.022Z,70.93
2024-04-22T07:28:07.600Z,71.01
2024-04-22T07:29:06.596Z,71.42
2024-04-22T07:30:06.578Z,72.42
2024-04-22T07:31:06.543Z,74.90
2024-04-22T07:32:06.535Z,77.98
2024-04-22T07:33:06.598Z,78.63
2024-04-22T07:34:06.510Z,78.70
2024-04-22T07:35:06.517Z,81.74
2024-04-22T07:36:06.451Z,80.74
2024-04-22T07:37:06.523Z,80.56
2024-04-22T07:38:06.570Z,83.10
2024-04-22T07:39:06.486Z,83.84
2024-04-22T07:40:06.559Z,85.41
2024-04-22T07:41:06.521Z,87.12
2024-04-22T07:42:06.998Z,85.09
2024-04-22T07:43:06.591Z,87.82
2024-04-22T07:44:06.615Z,89.84
2024-04-22T07:45:06.620Z,88.45
2024-04-22T07:46:06.647Z,91.09
2024-04-22T07:47:07.035Z,92.16
2024-04-22T07:48:06.725Z,93.19
2024-04-22T07:49:06.755Z,95.61
2024-04-22T07:50:06.760Z,93.47
2024-04-22T07:51:06.808Z,95.46
2024-04-22T07:52:07.041Z,97.05
2024-04-22T07:53:06.874Z,96.59
2024-04-22T07:54:06.844Z,98.41
2024-04-22T07:55:06.864Z,101.36
2024-04-22T07:56:06.897Z,98.36
2024-04-22T07:57:07.026Z,99.08
2024-04-22T07:58:06.890Z,101.43
2024-04-22T07:59:06.887Z,102.70
2024-04-22T08:00:06.927Z,103.16
2024-04-22T08:01:06.889Z,105.67
2024-04-22T08:02:06.852Z,107.38
2024-04-22T08:03:06.875Z,107.39
2024-04-22T08:04:07.152Z,107.61
2024-04-22T08:05:06.819Z,109.48
2024-04-22T08:06:06.870Z,109.38
2024-04-22T08:07:06.864Z,108.04
2024-04-22T08:08:06.779Z,113.49
2024-04-22T08:09:06.741Z,115.40
2024-04-22T08:10:06.929Z,115.64
2024-04-22T08:11:06.828Z,113.94
2024-04-22T08:12:06.783Z,116.96
2024-04-22T08:13:06.837Z,118.42
2024-04-22T08:14:06.828Z,119.16
2024-04-22T08:15:07.504Z,120.24
2024-04-22T08:16:06.922Z,122.93
2024-04-22T08:17:07.137Z,124.13
2024-04-22T08:18:06.918Z,123.72
2024-04-22T08:19:07.047Z,126.11
2024-04-22T08:20:06.871Z,127.49
2024-04-22T08:21:06.927Z,127.70
2024-04-22T08:22:07.010Z,129.91
2024-04-22T08:23:07.526Z,130.62
2024-04-22T08:24:07.064Z,131.66
2024-04-22T08:25:07.049Z,131.64
2024-04-22T08:26:07.103Z,135.29
2024-04-22T08:27:07.551Z,134.80
2024-04-22T08:28:07.173Z,137.49
2024-04-22T08:29:07.228Z,136.70
2024-04-22T08:30:07.292Z,139.31
2024-04-22T08:31:07.278Z,140.76
2024-04-22T08:32:07.307Z,140.82
2024-04-22T08:33:07.453Z,141.53
2024-04-22T08:34:07.363Z,143.52
2024-04-22T08:35:07.372Z,144.87
2024-04-22T08:36:07.389Z,146.43
2024-04-22T08:37:07.540Z,147.09
2024-04-22T08:38:07.467Z,149.58
2024-04-22T08:39:07.453Z,149.96
2024-04-22T08:40:07.529Z,152.75
2024-04-22T08:41:07.555Z,150.66
2024-04-22T08:42:08.015Z,154.00
2024-04-22T08:43:07.594Z,155.40
2024-04-22T08:44:07.601Z,155.73
2024-04-22T08:45:07.560Z,157.40
2024-04-22T08:46:07.596Z,159.10
2024-04-22T08:47:07.687Z,159.54
2024-04-22T08:48:07.690Z,162.60
2024-04-22T08:49:07.658Z,161.24
2024-04-22T08:50:07.662Z,162.71
2024-04-22T08:51:07.715Z,162.48
2024-04-22T08:52:07.882Z,163.79
2024-04-22T08:53:07.853Z,166.99
2024-04-22T08:54:07.788Z,166.00
2024-04-22T08:55:07.811Z,164.73
2024-04-22T08:56:07.866Z,166.67
2024-04-22T08:57:08.042Z,167.49
2024-04-22T08:58:07.928Z,166.18
2024-04-22T08:59:13.727Z,167.76
2024-04-22T09:00:08.927Z,167.86
2024-04-22T09:01:07.966Z,168.23
2024-04-22T09:02:07.944Z,169.37
2024-04-22T09:03:08.670Z,171.55
2024-04-22T09:04:08.579Z,173.71
2024-04-22T09:05:09.210Z,175.84
2024-04-22T09:06:08.030Z,179.75
2024-04-22T09:07:07.748Z,178.13
2024-04-22T09:08:07.820Z,181.10
2024-04-22T09:09:08.836Z,182.57
2024-04-22T09:10:34.860Z,183.92
2024-04-22T09:11:36.383Z,184.07
2024-04-22T09:12:11.049Z,184.18
2024-04-22T09:13:08.074Z,184.40
2024-04-22T09:14:07.734Z,185.74
2024-04-22T09:15:07.901Z,189.12
2024-04-22T09:16:07.753Z,193.40
2024-04-22T09:17:07.583Z,199.75
2024-04-22T09:18:08.239Z,198.12
2024-04-22T09:19:07.509Z,197.97
2024-04-22T09:20:07.432Z,199.89
2024-04-22T09:21:08.122Z,200.00
2024-04-22T09:22:07.285Z,199.96
2024-04-22T09:23:07.438Z,198.02
2024-04-22T09:24:07.328Z,199.66
2024-04-22T09:25:07.209Z,199.30
2024-04-22T09:26:07.444Z,199.20
2024-04-22T09:27:07.317Z,199.04
2024-04-22T09:28:07.269Z,198.79
2024-04-22T09:29:07.150Z,198.52
2024-04-22T09:30:07.103Z,198.43
2024-04-22T09:31:07.229Z,199.84
2024-04-22T09:32:07.258Z,199.65
2024-04-22T09:33:07.181Z,199.98
2024-04-22T09:34:07.178Z,198.43
2024-04-22T09:35:10.633Z,200.00
2024-04-22T09:36:07.995Z,200.09
2024-04-22T09:37:06.864Z,200.29
2024-04-22T09:38:06.893Z,200.91
2024-04-22T09:39:06.971Z,201.41
2024-04-22T09:40:06.784Z,202.89
2024-04-22T09:41:07.439Z,197.81
2024-04-22T09:42:06.847Z,200.00
2024-04-22T09:43:07.152Z,199.02
2024-04-22T09:44:10.601Z,200.00
2024-04-22T09:45:07.525Z,200.27
2024-04-22T09:46:06.752Z,201.74
2024-04-22T09:47:06.690Z,205.93
2024-04-22T09:48:06.734Z,212.52
2024-04-22T09:49:06.420Z,223.12
2024-04-22T09:50:06.539Z,209.84
2024-04-22T09:51:06.429Z,197.81
2024-04-22T09:52:06.180Z,197.46
2024-04-22T09:53:06.766Z,193.68
2024-04-22T09:54:06.122Z,193.92
2024-04-22T09:55:06.265Z,192.21
2024-04-22T09:56:06.178Z,190.82
2024-04-22T09:57:06.038Z,187.87
2024-04-22T09:58:06.228Z,186.59
2024-04-22T09:59:06.305Z,183.60
2024-04-22T10:00:06.005Z,179.57
2024-04-22T10:01:05.999Z,178.56
2024-04-22T10:02:06.884Z,177.61
2024-04-22T10:03:06.311Z,173.90
2024-04-22T10:04:06.088Z,171.81
2024-04-22T10:05:07.181Z,170.82
2024-04-22T10:06:06.090Z,167.94
2024-04-22T10:07:06.008Z,165.89
2024-04-22T10:08:06.251Z,161.48
2024-04-22T10:09:05.962Z,158.90
2024-04-22T10:10:05.922Z,155.33
2024-04-22T10:11:06.065Z,154.26
2024-04-22T10:12:06.234Z,154.61
2024-04-22T10:13:05.887Z,152.32
2024-04-22T10:14:06.315Z,153.84
2024-04-22T10:15:05.866Z,157.75
2024-04-22T10:16:05.814Z,164.56
2024-04-22T10:17:05.921Z,158.21
2024-04-22T10:18:09.094Z,158.98
2024-04-22T10:19:06.120Z,154.98
2024-04-22T10:20:05.894Z,151.12
2024-04-22T10:21:06.029Z,144.20
2024-04-22T10:22:05.978Z,145.68
2024-04-22T10:23:06.337Z,141.34
2024-04-22T10:24:05.823Z,144.16
2024-04-22T10:25:05.886Z,144.39
2024-04-22T10:26:05.786Z,139.27
2024-04-22T10:27:11.343Z,136.42
2024-04-22T10:28:06.763Z,136.47
2024-04-22T10:29:05.771Z,136.65
2024-04-22T10:30:08.749Z,137.14
2024-04-22T10:31:05.904Z,136.53
2024-04-22T10:32:05.830Z,136.88
2024-04-22T10:33:05.873Z,137.15
2024-04-22T10:34:05.673Z,138.41
2024-04-22T10:35:05.750Z,141.52
2024-04-22T10:36:06.632Z,136.67
2024-04-22T10:37:05.606Z,137.35
2024-04-22T10:38:05.616Z,138.33
2024-04-22T10:39:05.567Z,140.84
2024-04-22T10:40:05.576Z,143.69
2024-04-22T10:41:05.573Z,144.27
2024-04-22T10:42:05.545Z,144.46
2024-04-22T10:43:05.569Z,145.86
2024-04-22T10:44:05.414Z,146.75
2024-04-22T10:45:05.399Z,148.83
2024-04-22T10:46:05.396Z,150.45
2024-04-22T10:47:05.358Z,151.84
2024-04-22T10:48:12.390Z,153.29
2024-04-22T10:49:06.369Z,153.38
2024-04-22T10:50:05.274Z,153.88
2024-04-22T10:51:05.229Z,153.75
2024-04-22T10:52:05.212Z,154.46
2024-04-22T10:53:05.986Z,156.14
2024-04-22T10:54:05.137Z,157.84
2024-04-22T10:55:05.116Z,159.11
2024-04-22T10:56:05.103Z,159.50
2024-04-22T10:57:05.054Z,157.50
2024-04-22T10:58:05.001Z,157.92
2024-04-22T10:59:05.017Z,160.94
2024-04-22T11:00:04.979Z,162.03
2024-04-22T11:01:05.100Z,157.77
2024-04-22T11:02:05.352Z,159.87
2024-04-22T11:03:05.122Z,160.10
2024-04-22T11:04:05.102Z,158.96
2024-04-22T11:05:05.195Z,157.21
2024-04-22T11:06:05.136Z,158.29
2024-04-22T11:07:05.128Z,156.12
2024-04-22T11:08:05.623Z,154.36
2024-04-22T11:09:05.131Z,156.23
2024-04-22T11:10:05.179Z,156.81
2024-04-22T11:11:05.200Z,155.79
2024-04-22T11:12:05.200Z,155.57
2024-04-22T11:13:05.214Z,153.97
2024-04-22T11:14:05.212Z,152.34
2024-04-22T11:15:05.276Z,152.97
2024-04-22T11:16:05.330Z,151.91
2024-04-22T11:17:05.383Z,150.89
2024-04-22T11:18:05.576Z,150.91
2024-04-22T11:19:07.121Z,150.63
2024-04-22T11:20:05.441Z,150.91
2024-04-22T11:21:05.463Z,149.89
2024-04-22T11:22:05.543Z,151.67
2024-04-22T11:23:05.602Z,152.54
2024-04-22T11:24:05.610Z,152.24
2024-04-22T11:25:06.329Z,150.13
2024-04-22T11:26:05.661Z,150.32
2024-04-22T11:27:05.651Z,151.56
2024-04-22T11:28:05.719Z,145.50
2024-04-22T11:29:05.704Z,143.02
2024-04-22T11:30:05.759Z,145.02
2024-04-22T11:31:05.739Z,142.66
2024-04-22T11:32:05.809Z,141.19
2024-04-22T11:33:05.837Z,135.68
2024-04-22T11:34:05.731Z,136.70
2024-04-22T11:35:05.694Z,138.13
2024-04-22T11:36:05.742Z,140.93
2024-04-22T11:37:05.736Z,142.74
2024-04-22T11:38:05.743Z,147.52
2024-04-22T11:39:05.794Z,149.29
2024-04-22T11:40:05.761Z,152.22
2024-04-22T11:41:05.813Z,153.51
2024-04-22T11:42:05.808Z,154.05
2024-04-22T11:43:06.100Z,155.15
2024-04-22T11:44:05.819Z,154.54
2024-04-22T11:45:06.776Z,157.27
2024-04-22T11:46:05.863Z,159.12
2024-04-22T11:47:05.994Z,160.19
2024-04-22T11:48:06.134Z,161.10
2024-04-22T11:49:05.838Z,160.73
2024-04-22T11:50:05.824Z,159.30
2024-04-22T11:51:05.809Z,158.81
2024-04-22T11:52:05.806Z,160.45
2024-04-22T11:53:14.586Z,160.52
2024-04-22T11:54:06.784Z,160.58
2024-04-22T11:55:05.719Z,160.64
2024-04-22T11:56:08.645Z,160.63
2024-04-22T11:57:05.674Z,161.61
2024-04-22T11:58:05.608Z,161.34
2024-04-22T11:59:05.555Z,161.41
2024-04-22T12:00:05.515Z,159.89
2024-04-22T12:01:05.498Z,160.03
2024-04-22T12:02:05.480Z,161.31
2024-04-22T12:03:05.762Z,161.42
2024-04-22T12:04:05.470Z,162.12
2024-04-22T12:05:05.389Z,164.00
2024-04-22T12:06:05.418Z,161.86
2024-04-22T12:07:05.235Z,163.68
2024-04-22T12:08:05.216Z,162.13
2024-04-22T12:09:06.890Z,162.93
2024-04-22T12:10:05.083Z,163.06
2024-04-22T12:11:05.092Z,163.16
2024-04-22T12:12:04.992Z,163.38
2024-04-22T12:13:05.103Z,164.05
2024-04-22T12:14:04.958Z,165.31
2024-04-22T12:15:06.522Z,165.89
2024-04-22T12:16:04.950Z,165.93
2024-04-22T12:17:04.848Z,166.22
2024-04-22T12:18:05.113Z,165.96
2024-04-22T12:19:04.687Z,165.16
2024-04-22T12:20:04.616Z,164.36
2024-04-22T12:21:05.821Z,167.45
2024-04-22T12:22:04.684Z,163.71
2024-04-22T12:23:04.520Z,165.78
2024-04-22T12:24:04.467Z,166.40
2024-04-22T12:25:04.419Z,167.88
2024-04-22T12:26:04.436Z,167.91
2024-04-22T12:27:06.784Z,168.62
2024-04-22T12:28:13.316Z,167.54
2024-04-22T12:29:05.249Z,167.67
2024-04-22T12:30:04.182Z,167.75
2024-04-22T12:31:04.143Z,168.01
2024-04-22T12:32:04.062Z,169.11
2024-04-22T12:33:04.199Z,169.45
2024-04-22T12:34:12.077Z,169.53
2024-04-22T12:35:05.085Z,169.59
2024-04-22T12:36:03.942Z,167.26
2024-04-22T12:37:03.860Z,166.95
2024-04-22T12:38:06.723Z,165.07
2024-04-22T12:39:03.745Z,166.77
2024-04-22T12:40:03.732Z,165.82
2024-04-22T12:41:03.705Z,165.70
2024-04-22T12:42:03.652Z,165.39
2024-04-22T12:43:04.436Z,165.09
2024-04-22T12:44:04.605Z,165.87